Portada
METAR-TAF:

METAR-TAF

Aeropuertos :

Aeropuerto de Turín-Caselle

Turín, Italia

latitud: 45-13N, longitud: 007-39E, altitud: 301 m

Observación

El informe se hizo hace 30 minutos, a las 08:50 UTC
Viento 5 kt del noroeste
Temperatura 6°C
Humedad 81%
Presión 1021 hPa
Visibilidad: 8000 m
Cielo nuboso a una altura de 2000 ft
Cielo nuboso a una altura de 5000 ft
lluvia ligera

METAR: LIMF 160850Z 31005KT 8000 -RA BKN020 BKN050 06/03 Q1021

Hora: 11:20 (09:20 UTC)

Pronóstico

El informe se hizo hace 4 horas y 20 minutos, a las 05:00 UTC
Pronóstico válido del 16 a las 06 UTC al 17 a las 06 UTC
Viento 6 kt del norte-noreste
Visibilidad 10 km o más
Cielo nuboso a una altura de 6000 ft
Temporalmente
del 16 a las 06 UTC al 16 a las 10 UTC
Visibilidad: 4000 m
lluvia

TAF: LIMF 160500Z 1606/1706 02006KT 9999 BKN060 TEMPO 1606/1610 4000 RA

Observaciones y pronósticos meteorológicos de más de 4000 aeropuertos (mensajes METAR y TAF).

Los puntos amarillos y rojos representan las estaciones disponibles.

Ponga el ratón en el punto deseado para ver el nombre de la estación.

Haga clic para ver las observaciones y los pronósticos meteorológicos.

Para cambiar el mapa : haga clic en los botones verdes con una cruz de color negro para hacer un zoom, en el botón verde con un guión para alejar o en las flechas verdes para mapas adyacentes.


METAR-TAF: